sensor_id;sensor_type;location;lat;lon;timestamp;P1;durP1;ratioP1;P2;durP2;ratioP2
20340;SDS011;10328;50.042;8.238;2022-09-30T00:00:49;1.77;;;1.40;;
20340;SDS011;10328;50.042;8.238;2022-09-30T00:03:15;1.60;;;1.40;;
20340;SDS011;10328;50.042;8.238;2022-09-30T00:05:42;2.40;;;1.77;;
20340;SDS011;10328;50.042;8.238;2022-09-30T00:08:08;1.83;;;1.50;;
20340;SDS011;10328;50.042;8.238;2022-09-30T00:10:34;2.27;;;1.60;;
20340;SDS011;10328;50.042;8.238;2022-09-30T00:13:00;2.40;;;1.87;;
20340;SDS011;10328;50.042;8.238;2022-09-30T00:15:27;1.70;;;1.50;;
20340;SDS011;10328;50.042;8.238;2022-09-30T00:17:53;1.90;;;1.60;;
20340;SDS011;10328;50.042;8.238;2022-09-30T00:20:20;1.67;;;1.57;;
20340;SDS011;10328;50.042;8.238;2022-09-30T00:22:47;1.50;;;1.40;;
20340;SDS011;10328;50.042;8.238;2022-09-30T00:25:13;1.80;;;1.50;;
20340;SDS011;10328;50.042;8.238;2022-09-30T00:27:41;1.83;;;1.30;;
20340;SDS011;10328;50.042;8.238;2022-09-30T00:30:07;1.70;;;1.60;;
20340;SDS011;10328;50.042;8.238;2022-09-30T00:32:34;1.70;;;1.50;;
20340;SDS011;10328;50.042;8.238;2022-09-30T00:35:00;2.10;;;1.60;;
20340;SDS011;10328;50.042;8.238;2022-09-30T00:37:27;1.80;;;1.40;;
20340;SDS011;10328;50.042;8.238;2022-09-30T00:39:53;1.80;;;1.60;;
20340;SDS011;10328;50.042;8.238;2022-09-30T00:42:19;1.90;;;1.60;;
20340;SDS011;10328;50.042;8.238;2022-09-30T00:44:50;1.57;;;1.37;;
20340;SDS011;10328;50.042;8.238;2022-09-30T00:50:00;2.17;;;1.50;;
20340;SDS011;10328;50.042;8.238;2022-09-30T00:52:30;1.53;;;1.40;;
20340;SDS011;10328;50.042;8.238;2022-09-30T00:54:57;1.67;;;1.40;;
20340;SDS011;10328;50.042;8.238;2022-09-30T00:57:25;1.70;;;1.50;;
20340;SDS011;10328;50.042;8.238;2022-09-30T00:59:52;1.50;;;1.40;;
20340;SDS011;10328;50.042;8.238;2022-09-30T01:02:19;1.60;;;1.37;;
20340;SDS011;10328;50.042;8.238;2022-09-30T01:04:45;1.40;;;1.30;;
20340;SDS011;10328;50.042;8.238;2022-09-30T01:07:12;1.83;;;1.50;;
20340;SDS011;10328;50.042;8.238;2022-09-30T01:09:40;1.50;;;1.40;;
20340;SDS011;10328;50.042;8.238;2022-09-30T01:12:11;1.80;;;1.40;;
20340;SDS011;10328;50.042;8.238;2022-09-30T01:14:39;1.50;;;1.40;;
20340;SDS011;10328;50.042;8.238;2022-09-30T01:17:13;1.30;;;1.20;;
20340;SDS011;10328;50.042;8.238;2022-09-30T01:20:02;1.53;;;1.30;;
20340;SDS011;10328;50.042;8.238;2022-09-30T01:31:27;1.93;;;1.50;;
20340;SDS011;10328;50.042;8.238;2022-09-30T01:34:14;1.40;;;1.30;;
20340;SDS011;10328;50.042;8.238;2022-09-30T01:45:24;1.53;;;1.37;;
20340;SDS011;10328;50.042;8.238;2022-09-30T01:48:02;1.63;;;1.40;;
20340;SDS011;10328;50.042;8.238;2022-09-30T01:56:12;2.17;;;1.60;;
20340;SDS011;10328;50.042;8.238;2022-09-30T02:01:23;1.40;;;1.30;;
20340;SDS011;10328;50.042;8.238;2022-09-30T02:03:53;1.43;;;1.20;;
20340;SDS011;10328;50.042;8.238;2022-09-30T02:06:25;1.60;;;1.30;;
20340;SDS011;10328;50.042;8.238;2022-09-30T02:11:31;1.93;;;1.20;;
20340;SDS011;10328;50.042;8.238;2022-09-30T02:16:45;1.80;;;1.40;;
20340;SDS011;10328;50.042;8.238;2022-09-30T02:19:21;1.80;;;1.40;;
20340;SDS011;10328;50.042;8.238;2022-09-30T02:21:54;1.40;;;1.30;;
20340;SDS011;10328;50.042;8.238;2022-09-30T02:24:23;1.60;;;1.50;;
20340;SDS011;10328;50.042;8.238;2022-09-30T02:26:52;1.40;;;1.20;;
20340;SDS011;10328;50.042;8.238;2022-09-30T02:29:26;2.07;;;1.50;;
20340;SDS011;10328;50.042;8.238;2022-09-30T02:31:56;1.43;;;1.33;;
20340;SDS011;10328;50.042;8.238;2022-09-30T02:34:40;1.50;;;1.40;;
20340;SDS011;10328;50.042;8.238;2022-09-30T02:37:10;1.30;;;1.10;;
20340;SDS011;10328;50.042;8.238;2022-09-30T02:42:11;2.20;;;1.50;;
20340;SDS011;10328;50.042;8.238;2022-09-30T02:44:41;1.27;;;1.17;;
20340;SDS011;10328;50.042;8.238;2022-09-30T02:49:59;1.40;;;1.20;;
20340;SDS011;10328;50.042;8.238;2022-09-30T02:57:42;1.93;;;1.20;;
20340;SDS011;10328;50.042;8.238;2022-09-30T03:00:15;1.50;;;1.40;;
20340;SDS011;10328;50.042;8.238;2022-09-30T03:02:41;1.43;;;1.20;;
20340;SDS011;10328;50.042;8.238;2022-09-30T03:05:08;1.73;;;1.30;;
20340;SDS011;10328;50.042;8.238;2022-09-30T03:07:35;1.77;;;1.37;;
20340;SDS011;10328;50.042;8.238;2022-09-30T03:10:10;1.50;;;1.20;;
20340;SDS011;10328;50.042;8.238;2022-09-30T03:15:17;1.43;;;1.20;;
20340;SDS011;10328;50.042;8.238;2022-09-30T03:20:27;1.43;;;1.33;;
20340;SDS011;10328;50.042;8.238;2022-09-30T03:25:55;1.20;;;1.10;;
20340;SDS011;10328;50.042;8.238;2022-09-30T03:31:34;1.60;;;1.20;;
20340;SDS011;10328;50.042;8.238;2022-09-30T03:34:15;1.10;;;1.00;;
20340;SDS011;10328;50.042;8.238;2022-09-30T03:39:21;1.30;;;1.20;;
20340;SDS011;10328;50.042;8.238;2022-09-30T03:41:58;1.60;;;1.30;;
20340;SDS011;10328;50.042;8.238;2022-09-30T03:44:37;1.40;;;1.30;;
20340;SDS011;10328;50.042;8.238;2022-09-30T03:47:06;1.50;;;1.20;;
20340;SDS011;10328;50.042;8.238;2022-09-30T03:49:36;1.40;;;1.30;;
20340;SDS011;10328;50.042;8.238;2022-09-30T03:52:08;1.30;;;1.10;;
20340;SDS011;10328;50.042;8.238;2022-09-30T03:54:45;2.27;;;1.30;;
20340;SDS011;10328;50.042;8.238;2022-09-30T03:57:16;1.40;;;1.17;;
20340;SDS011;10328;50.042;8.238;2022-09-30T03:59:43;1.50;;;1.30;;
20340;SDS011;10328;50.042;8.238;2022-09-30T04:02:09;1.70;;;1.43;;
20340;SDS011;10328;50.042;8.238;2022-09-30T04:04:38;1.30;;;1.20;;
20340;SDS011;10328;50.042;8.238;2022-09-30T04:07:06;1.50;;;1.30;;
20340;SDS011;10328;50.042;8.238;2022-09-30T04:09:33;1.33;;;1.23;;
20340;SDS011;10328;50.042;8.238;2022-09-30T04:12:00;1.10;;;1.00;;
20340;SDS011;10328;50.042;8.238;2022-09-30T04:14:26;1.20;;;1.10;;
20340;SDS011;10328;50.042;8.238;2022-09-30T04:16:52;1.47;;;1.20;;
20340;SDS011;10328;50.042;8.238;2022-09-30T04:19:19;1.20;;;1.10;;
20340;SDS011;10328;50.042;8.238;2022-09-30T04:21:45;1.30;;;1.20;;
20340;SDS011;10328;50.042;8.238;2022-09-30T04:24:12;1.50;;;1.40;;
20340;SDS011;10328;50.042;8.238;2022-09-30T04:26:38;1.60;;;1.30;;
20340;SDS011;10328;50.042;8.238;2022-09-30T04:29:04;1.20;;;1.10;;
20340;SDS011;10328;50.042;8.238;2022-09-30T04:31:31;1.30;;;1.10;;
20340;SDS011;10328;50.042;8.238;2022-09-30T04:33:57;1.40;;;1.30;;
20340;SDS011;10328;50.042;8.238;2022-09-30T04:36:24;1.17;;;1.07;;
20340;SDS011;10328;50.042;8.238;2022-09-30T04:38:50;1.50;;;1.37;;
20340;SDS011;10328;50.042;8.238;2022-09-30T04:41:18;1.63;;;1.30;;
20340;SDS011;10328;50.042;8.238;2022-09-30T04:43:46;1.60;;;1.40;;
20340;SDS011;10328;50.042;8.238;2022-09-30T04:46:16;1.60;;;1.20;;
20340;SDS011;10328;50.042;8.238;2022-09-30T04:48:44;1.47;;;1.37;;
20340;SDS011;10328;50.042;8.238;2022-09-30T04:51:12;1.53;;;1.30;;
20340;SDS011;10328;50.042;8.238;2022-09-30T04:53:39;1.40;;;1.23;;
20340;SDS011;10328;50.042;8.238;2022-09-30T04:56:05;1.63;;;1.10;;
20340;SDS011;10328;50.042;8.238;2022-09-30T04:58:32;1.57;;;1.03;;
20340;SDS011;10328;50.042;8.238;2022-09-30T05:01:09;1.40;;;1.30;;
20340;SDS011;10328;50.042;8.238;2022-09-30T05:03:36;1.10;;;1.00;;
20340;SDS011;10328;50.042;8.238;2022-09-30T05:06:03;1.90;;;1.13;;
20340;SDS011;10328;50.042;8.238;2022-09-30T05:08:30;1.27;;;1.17;;
20340;SDS011;10328;50.042;8.238;2022-09-30T05:11:01;1.17;;;1.07;;
20340;SDS011;10328;50.042;8.238;2022-09-30T05:13:30;1.40;;;1.20;;
20340;SDS011;10328;50.042;8.238;2022-09-30T05:15:58;1.25;;;1.15;;
20340;SDS011;10328;50.042;8.238;2022-09-30T05:18:24;1.10;;;0.93;;
20340;SDS011;10328;50.042;8.238;2022-09-30T05:20:51;1.23;;;1.13;;
20340;SDS011;10328;50.042;8.238;2022-09-30T05:23:18;1.08;;;0.98;;
20340;SDS011;10328;50.042;8.238;2022-09-30T05:25:46;1.08;;;0.90;;
20340;SDS011;10328;50.042;8.238;2022-09-30T05:28:12;1.23;;;1.08;;
20340;SDS011;10328;50.042;8.238;2022-09-30T05:30:40;1.60;;;1.50;;
20340;SDS011;10328;50.042;8.238;2022-09-30T05:33:07;2.15;;;1.80;;
20340;SDS011;10328;50.042;8.238;2022-09-30T05:35:33;2.92;;;1.90;;
20340;SDS011;10328;50.042;8.238;2022-09-30T05:38:00;2.70;;;2.00;;
20340;SDS011;10328;50.042;8.238;2022-09-30T05:40:29;3.05;;;1.88;;
20340;SDS011;10328;50.042;8.238;2022-09-30T05:42:56;3.13;;;2.10;;
20340;SDS011;10328;50.042;8.238;2022-09-30T05:45:25;2.90;;;2.00;;
20340;SDS011;10328;50.042;8.238;2022-09-30T05:47:52;2.35;;;1.90;;
20340;SDS011;10328;50.042;8.238;2022-09-30T05:50:19;5.40;;;1.98;;
20340;SDS011;10328;50.042;8.238;2022-09-30T05:52:46;2.38;;;2.00;;
20340;SDS011;10328;50.042;8.238;2022-09-30T05:55:15;3.58;;;1.92;;
20340;SDS011;10328;50.042;8.238;2022-09-30T05:57:42;3.03;;;1.90;;
20340;SDS011;10328;50.042;8.238;2022-09-30T06:00:09;5.90;;;2.10;;
20340;SDS011;10328;50.042;8.238;2022-09-30T06:02:35;5.47;;;2.00;;
20340;SDS011;10328;50.042;8.238;2022-09-30T06:05:04;2.15;;;1.67;;
20340;SDS011;10328;50.042;8.238;2022-09-30T06:07:32;3.38;;;1.90;;
20340;SDS011;10328;50.042;8.238;2022-09-30T06:09:59;2.50;;;1.58;;
20340;SDS011;10328;50.042;8.238;2022-09-30T06:12:26;4.03;;;1.73;;
20340;SDS011;10328;50.042;8.238;2022-09-30T06:14:54;2.40;;;1.80;;
20340;SDS011;10328;50.042;8.238;2022-09-30T06:17:21;3.27;;;1.87;;
20340;SDS011;10328;50.042;8.238;2022-09-30T06:19:48;2.93;;;2.10;;
20340;SDS011;10328;50.042;8.238;2022-09-30T06:22:17;4.13;;;1.90;;
20340;SDS011;10328;50.042;8.238;2022-09-30T06:24:44;2.87;;;1.77;;
20340;SDS011;10328;50.042;8.238;2022-09-30T06:27:10;2.57;;;1.90;;
20340;SDS011;10328;50.042;8.238;2022-09-30T06:29:37;2.83;;;1.80;;
20340;SDS011;10328;50.042;8.238;2022-09-30T06:32:04;2.70;;;1.73;;
20340;SDS011;10328;50.042;8.238;2022-09-30T06:34:31;2.50;;;1.90;;
20340;SDS011;10328;50.042;8.238;2022-09-30T06:36:58;2.83;;;1.77;;
20340;SDS011;10328;50.042;8.238;2022-09-30T06:39:24;3.10;;;2.03;;
20340;SDS011;10328;50.042;8.238;2022-09-30T06:41:52;2.47;;;1.90;;
20340;SDS011;10328;50.042;8.238;2022-09-30T06:44:19;3.10;;;2.13;;
20340;SDS011;10328;50.042;8.238;2022-09-30T06:46:45;2.30;;;1.80;;
20340;SDS011;10328;50.042;8.238;2022-09-30T06:49:19;2.30;;;1.90;;
20340;SDS011;10328;50.042;8.238;2022-09-30T06:51:46;3.23;;;2.27;;
20340;SDS011;10328;50.042;8.238;2022-09-30T06:54:12;2.10;;;1.70;;
20340;SDS011;10328;50.042;8.238;2022-09-30T06:56:38;2.73;;;1.77;;
20340;SDS011;10328;50.042;8.238;2022-09-30T06:59:05;2.17;;;1.73;;
20340;SDS011;10328;50.042;8.238;2022-09-30T07:01:32;2.37;;;1.70;;
20340;SDS011;10328;50.042;8.238;2022-09-30T07:03:58;3.00;;;2.00;;
20340;SDS011;10328;50.042;8.238;2022-09-30T07:06:24;2.40;;;1.83;;
20340;SDS011;10328;50.042;8.238;2022-09-30T07:08:51;2.77;;;2.23;;
20340;SDS011;10328;50.042;8.238;2022-09-30T07:11:19;3.13;;;2.00;;
20340;SDS011;10328;50.042;8.238;2022-09-30T07:13:46;3.00;;;2.20;;
20340;SDS011;10328;50.042;8.238;2022-09-30T07:16:12;3.57;;;1.90;;
20340;SDS011;10328;50.042;8.238;2022-09-30T07:18:40;10.37;;;2.03;;
20340;SDS011;10328;50.042;8.238;2022-09-30T07:21:13;6.93;;;2.20;;
20340;SDS011;10328;50.042;8.238;2022-09-30T07:23:42;6.27;;;1.77;;
20340;SDS011;10328;50.042;8.238;2022-09-30T07:26:16;4.53;;;2.10;;
20340;SDS011;10328;50.042;8.238;2022-09-30T07:28:44;5.03;;;1.97;;
20340;SDS011;10328;50.042;8.238;2022-09-30T07:31:15;6.87;;;1.60;;
20340;SDS011;10328;50.042;8.238;2022-09-30T07:33:58;3.37;;;1.90;;
20340;SDS011;10328;50.042;8.238;2022-09-30T07:36:25;7.80;;;2.10;;
20340;SDS011;10328;50.042;8.238;2022-09-30T07:38:58;6.73;;;2.00;;
20340;SDS011;10328;50.042;8.238;2022-09-30T07:41:26;7.63;;;1.90;;
20340;SDS011;10328;50.042;8.238;2022-09-30T07:43:54;3.00;;;1.90;;
20340;SDS011;10328;50.042;8.238;2022-09-30T07:46:23;3.87;;;2.03;;
20340;SDS011;10328;50.042;8.238;2022-09-30T07:48:52;8.07;;;2.20;;
20340;SDS011;10328;50.042;8.238;2022-09-30T07:51:25;7.23;;;1.90;;
20340;SDS011;10328;50.042;8.238;2022-09-30T07:53:59;4.50;;;1.90;;
20340;SDS011;10328;50.042;8.238;2022-09-30T07:56:27;4.90;;;2.00;;
20340;SDS011;10328;50.042;8.238;2022-09-30T07:59:14;5.90;;;2.00;;
20340;SDS011;10328;50.042;8.238;2022-09-30T08:01:40;2.87;;;1.80;;
20340;SDS011;10328;50.042;8.238;2022-09-30T08:04:08;2.57;;;1.80;;
20340;SDS011;10328;50.042;8.238;2022-09-30T08:06:36;5.00;;;1.90;;
20340;SDS011;10328;50.042;8.238;2022-09-30T08:09:07;4.83;;;1.87;;
20340;SDS011;10328;50.042;8.238;2022-09-30T08:11:34;4.53;;;1.93;;
20340;SDS011;10328;50.042;8.238;2022-09-30T08:14:02;4.20;;;1.90;;
20340;SDS011;10328;50.042;8.238;2022-09-30T08:16:28;8.80;;;2.37;;
20340;SDS011;10328;50.042;8.238;2022-09-30T08:18:55;7.83;;;2.47;;
20340;SDS011;10328;50.042;8.238;2022-09-30T08:21:22;3.83;;;2.20;;
20340;SDS011;10328;50.042;8.238;2022-09-30T08:23:49;6.57;;;2.43;;
20340;SDS011;10328;50.042;8.238;2022-09-30T08:26:15;5.43;;;2.30;;
20340;SDS011;10328;50.042;8.238;2022-09-30T08:28:42;4.30;;;1.85;;
20340;SDS011;10328;50.042;8.238;2022-09-30T08:31:13;2.88;;;1.67;;
20340;SDS011;10328;50.042;8.238;2022-09-30T08:33:41;5.40;;;2.25;;
20340;SDS011;10328;50.042;8.238;2022-09-30T08:36:09;4.35;;;1.80;;
20340;SDS011;10328;50.042;8.238;2022-09-30T08:38:37;3.55;;;2.00;;
20340;SDS011;10328;50.042;8.238;2022-09-30T08:46:39;3.97;;;2.20;;
20340;SDS011;10328;50.042;8.238;2022-09-30T08:52:46;2.45;;;1.77;;
20340;SDS011;10328;50.042;8.238;2022-09-30T08:55:19;4.88;;;1.70;;
20340;SDS011;10328;50.042;8.238;2022-09-30T08:57:48;3.00;;;1.88;;
20340;SDS011;10328;50.042;8.238;2022-09-30T09:00:16;3.13;;;1.65;;
20340;SDS011;10328;50.042;8.238;2022-09-30T09:02:47;2.28;;;1.50;;
20340;SDS011;10328;50.042;8.238;2022-09-30T09:16:09;3.03;;;1.90;;
20340;SDS011;10328;50.042;8.238;2022-09-30T09:24:09;2.53;;;1.75;;
20340;SDS011;10328;50.042;8.238;2022-09-30T09:26:39;4.07;;;1.80;;
20340;SDS011;10328;50.042;8.238;2022-09-30T09:29:51;3.88;;;1.73;;
20340;SDS011;10328;50.042;8.238;2022-09-30T09:31:52;3.85;;;2.00;;
20340;SDS011;10328;50.042;8.238;2022-09-30T09:34:21;2.38;;;1.73;;
20340;SDS011;10328;50.042;8.238;2022-09-30T09:39:47;3.03;;;1.67;;
20340;SDS011;10328;50.042;8.238;2022-09-30T09:42:26;2.65;;;1.63;;
20340;SDS011;10328;50.042;8.238;2022-09-30T09:47:52;3.90;;;1.65;;
20340;SDS011;10328;50.042;8.238;2022-09-30T09:50:21;2.42;;;1.58;;
20340;SDS011;10328;50.042;8.238;2022-09-30T09:52:57;3.67;;;1.80;;
20340;SDS011;10328;50.042;8.238;2022-09-30T09:55:28;2.03;;;1.40;;
20340;SDS011;10328;50.042;8.238;2022-09-30T09:58:04;2.78;;;1.70;;
20340;SDS011;10328;50.042;8.238;2022-09-30T10:00:42;4.05;;;1.60;;
20340;SDS011;10328;50.042;8.238;2022-09-30T10:05:44;2.92;;;1.60;;
20340;SDS011;10328;50.042;8.238;2022-09-30T10:08:16;5.80;;;1.90;;
20340;SDS011;10328;50.042;8.238;2022-09-30T10:13:16;4.68;;;2.22;;
20340;SDS011;10328;50.042;8.238;2022-09-30T10:15:42;4.00;;;1.83;;
20340;SDS011;10328;50.042;8.238;2022-09-30T10:18:15;3.42;;;1.67;;
20340;SDS011;10328;50.042;8.238;2022-09-30T10:20:55;4.72;;;1.70;;
20340;SDS011;10328;50.042;8.238;2022-09-30T10:23:31;4.50;;;1.88;;
20340;SDS011;10328;50.042;8.238;2022-09-30T10:28:47;2.45;;;1.52;;
20340;SDS011;10328;50.042;8.238;2022-09-30T10:33:43;2.58;;;1.50;;
20340;SDS011;10328;50.042;8.238;2022-09-30T10:36:15;3.83;;;1.80;;
20340;SDS011;10328;50.042;8.238;2022-09-30T10:38:44;3.25;;;1.70;;
20340;SDS011;10328;50.042;8.238;2022-09-30T10:41:13;4.28;;;1.50;;
20340;SDS011;10328;50.042;8.238;2022-09-30T10:43:49;1.85;;;1.58;;
20340;SDS011;10328;50.042;8.238;2022-09-30T10:46:28;2.47;;;1.80;;
20340;SDS011;10328;50.042;8.238;2022-09-30T10:48:56;4.35;;;1.90;;
20340;SDS011;10328;50.042;8.238;2022-09-30T10:51:33;2.55;;;1.58;;
20340;SDS011;10328;50.042;8.238;2022-09-30T10:54:01;2.03;;;1.58;;
20340;SDS011;10328;50.042;8.238;2022-09-30T10:56:39;5.03;;;1.90;;
20340;SDS011;10328;50.042;8.238;2022-09-30T10:59:12;3.05;;;1.77;;
20340;SDS011;10328;50.042;8.238;2022-09-30T11:01:49;3.80;;;1.85;;
20340;SDS011;10328;50.042;8.238;2022-09-30T11:04:25;3.10;;;1.83;;
20340;SDS011;10328;50.042;8.238;2022-09-30T11:06:59;4.00;;;1.77;;
20340;SDS011;10328;50.042;8.238;2022-09-30T11:09:32;4.13;;;2.50;;
20340;SDS011;10328;50.042;8.238;2022-09-30T11:12:13;4.43;;;1.83;;
20340;SDS011;10328;50.042;8.238;2022-09-30T11:14:48;3.75;;;1.90;;
20340;SDS011;10328;50.042;8.238;2022-09-30T11:25:18;2.65;;;1.80;;
20340;SDS011;10328;50.042;8.238;2022-09-30T11:36:26;4.13;;;2.03;;
20340;SDS011;10328;50.042;8.238;2022-09-30T11:39:19;2.60;;;1.80;;
20340;SDS011;10328;50.042;8.238;2022-09-30T11:41:59;5.30;;;2.25;;
20340;SDS011;10328;50.042;8.238;2022-09-30T11:44:34;1.90;;;1.60;;
20340;SDS011;10328;50.042;8.238;2022-09-30T11:58:31;2.55;;;1.52;;
20340;SDS011;10328;50.042;8.238;2022-09-30T12:01:15;2.00;;;1.50;;
20340;SDS011;10328;50.042;8.238;2022-09-30T12:03:58;3.03;;;1.90;;
20340;SDS011;10328;50.042;8.238;2022-09-30T12:06:32;2.03;;;1.50;;
20340;SDS011;10328;50.042;8.238;2022-09-30T12:09:02;2.00;;;1.80;;
20340;SDS011;10328;50.042;8.238;2022-09-30T12:11:34;4.05;;;1.70;;
20340;SDS011;10328;50.042;8.238;2022-09-30T12:14:08;2.95;;;1.42;;
20340;SDS011;10328;50.042;8.238;2022-09-30T12:16:38;1.65;;;1.27;;
20340;SDS011;10328;50.042;8.238;2022-09-30T12:19:15;2.80;;;1.70;;
20340;SDS011;10328;50.042;8.238;2022-09-30T12:24:24;4.50;;;1.60;;
20340;SDS011;10328;50.042;8.238;2022-09-30T12:26:56;2.95;;;1.60;;
20340;SDS011;10328;50.042;8.238;2022-09-30T12:29:25;2.08;;;1.60;;
20340;SDS011;10328;50.042;8.238;2022-09-30T12:32:19;2.42;;;1.55;;
20340;SDS011;10328;50.042;8.238;2022-09-30T12:43:09;3.38;;;1.65;;
20340;SDS011;10328;50.042;8.238;2022-09-30T12:48:36;1.88;;;1.58;;
20340;SDS011;10328;50.042;8.238;2022-09-30T12:51:05;4.05;;;1.55;;
20340;SDS011;10328;50.042;8.238;2022-09-30T12:53:34;2.08;;;1.33;;
20340;SDS011;10328;50.042;8.238;2022-09-30T12:56:08;3.50;;;1.80;;
20340;SDS011;10328;50.042;8.238;2022-09-30T12:58:37;2.08;;;1.77;;
20340;SDS011;10328;50.042;8.238;2022-09-30T13:01:16;2.13;;;1.88;;
20340;SDS011;10328;50.042;8.238;2022-09-30T13:06:22;2.47;;;1.90;;
20340;SDS011;10328;50.042;8.238;2022-09-30T13:09:04;1.60;;;1.50;;
20340;SDS011;10328;50.042;8.238;2022-09-30T13:11:42;3.90;;;1.80;;
20340;SDS011;10328;50.042;8.238;2022-09-30T13:14:23;2.70;;;1.45;;
20340;SDS011;10328;50.042;8.238;2022-09-30T13:27:41;2.58;;;1.55;;
20340;SDS011;10328;50.042;8.238;2022-09-30T13:32:38;2.38;;;1.50;;
20340;SDS011;10328;50.042;8.238;2022-09-30T13:40:40;4.57;;;1.73;;
20340;SDS011;10328;50.042;8.238;2022-09-30T13:43:34;2.50;;;1.70;;
20340;SDS011;10328;50.042;8.238;2022-09-30T13:46:12;2.10;;;1.48;;
20340;SDS011;10328;50.042;8.238;2022-09-30T13:48:48;2.03;;;1.40;;
20340;SDS011;10328;50.042;8.238;2022-09-30T13:51:17;1.75;;;1.40;;
20340;SDS011;10328;50.042;8.238;2022-09-30T13:53:47;2.83;;;1.60;;
20340;SDS011;10328;50.042;8.238;2022-09-30T13:56:29;2.63;;;1.55;;
20340;SDS011;10328;50.042;8.238;2022-09-30T14:02:04;1.83;;;1.50;;
20340;SDS011;10328;50.042;8.238;2022-09-30T14:07:38;1.77;;;1.45;;
20340;SDS011;10328;50.042;8.238;2022-09-30T14:10:28;3.75;;;1.60;;
20340;SDS011;10328;50.042;8.238;2022-09-30T14:13:04;3.80;;;1.35;;
20340;SDS011;10328;50.042;8.238;2022-09-30T14:24:01;2.17;;;1.33;;
20340;SDS011;10328;50.042;8.238;2022-09-30T14:32:19;1.60;;;1.20;;
20340;SDS011;10328;50.042;8.238;2022-09-30T14:34:50;2.00;;;1.33;;
20340;SDS011;10328;50.042;8.238;2022-09-30T14:37:20;2.40;;;1.48;;
20340;SDS011;10328;50.042;8.238;2022-09-30T14:39:54;3.03;;;1.63;;
20340;SDS011;10328;50.042;8.238;2022-09-30T14:42:25;1.77;;;1.30;;
20340;SDS011;10328;50.042;8.238;2022-09-30T14:44:55;1.80;;;1.25;;
20340;SDS011;10328;50.042;8.238;2022-09-30T14:47:36;2.35;;;1.38;;
20340;SDS011;10328;50.042;8.238;2022-09-30T14:50:14;1.98;;;1.50;;
20340;SDS011;10328;50.042;8.238;2022-09-30T14:52:43;2.30;;;1.50;;
20340;SDS011;10328;50.042;8.238;2022-09-30T14:55:18;2.08;;;1.50;;
20340;SDS011;10328;50.042;8.238;2022-09-30T14:57:51;2.13;;;1.50;;
20340;SDS011;10328;50.042;8.238;2022-09-30T15:00:20;1.95;;;1.40;;
20340;SDS011;10328;50.042;8.238;2022-09-30T15:02:52;1.73;;;1.30;;
20340;SDS011;10328;50.042;8.238;2022-09-30T15:05:19;3.45;;;1.30;;
20340;SDS011;10328;50.042;8.238;2022-09-30T15:07:45;2.65;;;1.30;;
20340;SDS011;10328;50.042;8.238;2022-09-30T15:10:15;1.63;;;1.35;;
20340;SDS011;10328;50.042;8.238;2022-09-30T15:12:44;1.95;;;1.23;;
20340;SDS011;10328;50.042;8.238;2022-09-30T15:17:51;1.20;;;1.10;;
20340;SDS011;10328;50.042;8.238;2022-09-30T15:20:23;2.97;;;1.85;;
20340;SDS011;10328;50.042;8.238;2022-09-30T15:22:53;2.80;;;1.60;;
20340;SDS011;10328;50.042;8.238;2022-09-30T15:25:20;1.65;;;1.50;;
20340;SDS011;10328;50.042;8.238;2022-09-30T15:27:46;2.25;;;1.70;;
20340;SDS011;10328;50.042;8.238;2022-09-30T15:32:41;2.90;;;1.50;;
20340;SDS011;10328;50.042;8.238;2022-09-30T15:35:11;2.70;;;1.63;;
20340;SDS011;10328;50.042;8.238;2022-09-30T15:37:42;2.55;;;1.30;;
20340;SDS011;10328;50.042;8.238;2022-09-30T15:40:12;2.30;;;1.40;;
20340;SDS011;10328;50.042;8.238;2022-09-30T15:43:00;2.45;;;1.73;;
20340;SDS011;10328;50.042;8.238;2022-09-30T15:45:32;2.42;;;1.30;;
20340;SDS011;10328;50.042;8.238;2022-09-30T15:50:47;2.42;;;1.42;;
20340;SDS011;10328;50.042;8.238;2022-09-30T15:55:54;1.40;;;1.20;;
20340;SDS011;10328;50.042;8.238;2022-09-30T15:58:36;3.13;;;1.50;;
20340;SDS011;10328;50.042;8.238;2022-09-30T16:01:19;2.13;;;1.48;;
20340;SDS011;10328;50.042;8.238;2022-09-30T16:03:49;3.08;;;1.67;;
20340;SDS011;10328;50.042;8.238;2022-09-30T16:06:26;2.63;;;1.65;;
20340;SDS011;10328;50.042;8.238;2022-09-30T16:08:55;3.45;;;2.22;;
20340;SDS011;10328;50.042;8.238;2022-09-30T16:11:28;3.00;;;2.00;;
20340;SDS011;10328;50.042;8.238;2022-09-30T16:13:57;2.60;;;1.80;;
20340;SDS011;10328;50.042;8.238;2022-09-30T16:16:25;3.08;;;1.80;;
20340;SDS011;10328;50.042;8.238;2022-09-30T16:18:53;3.10;;;1.50;;
20340;SDS011;10328;50.042;8.238;2022-09-30T16:24:39;2.80;;;1.50;;
20340;SDS011;10328;50.042;8.238;2022-09-30T16:27:00;4.63;;;1.75;;
20340;SDS011;10328;50.042;8.238;2022-09-30T16:29:45;2.40;;;1.67;;
20340;SDS011;10328;50.042;8.238;2022-09-30T16:32:11;3.95;;;2.10;;
20340;SDS011;10328;50.042;8.238;2022-09-30T16:34:39;3.20;;;2.05;;
20340;SDS011;10328;50.042;8.238;2022-09-30T16:37:09;5.65;;;2.15;;
20340;SDS011;10328;50.042;8.238;2022-09-30T16:39:36;2.80;;;1.83;;
20340;SDS011;10328;50.042;8.238;2022-09-30T16:42:03;2.15;;;1.58;;
20340;SDS011;10328;50.042;8.238;2022-09-30T16:44:30;2.50;;;1.52;;
20340;SDS011;10328;50.042;8.238;2022-09-30T16:47:01;3.22;;;1.75;;
20340;SDS011;10328;50.042;8.238;2022-09-30T16:49:27;3.40;;;1.90;;
20340;SDS011;10328;50.042;8.238;2022-09-30T16:51:54;3.05;;;1.77;;
20340;SDS011;10328;50.042;8.238;2022-09-30T16:54:20;2.40;;;1.70;;
20340;SDS011;10328;50.042;8.238;2022-09-30T16:56:46;3.80;;;1.90;;
20340;SDS011;10328;50.042;8.238;2022-09-30T16:59:14;3.33;;;1.95;;
20340;SDS011;10328;50.042;8.238;2022-09-30T17:01:42;2.75;;;1.70;;
20340;SDS011;10328;50.042;8.238;2022-09-30T17:04:08;3.75;;;1.83;;
20340;SDS011;10328;50.042;8.238;2022-09-30T17:06:42;2.95;;;1.70;;
20340;SDS011;10328;50.042;8.238;2022-09-30T17:09:08;2.90;;;1.92;;
20340;SDS011;10328;50.042;8.238;2022-09-30T17:11:35;2.60;;;1.70;;
20340;SDS011;10328;50.042;8.238;2022-09-30T17:14:03;2.08;;;1.67;;
20340;SDS011;10328;50.042;8.238;2022-09-30T17:16:30;3.92;;;2.10;;
20340;SDS011;10328;50.042;8.238;2022-09-30T17:18:57;3.92;;;1.92;;
20340;SDS011;10328;50.042;8.238;2022-09-30T17:21:24;2.35;;;1.70;;
20340;SDS011;10328;50.042;8.238;2022-09-30T17:23:51;2.63;;;1.95;;
20340;SDS011;10328;50.042;8.238;2022-09-30T17:26:17;2.53;;;1.83;;
20340;SDS011;10328;50.042;8.238;2022-09-30T17:28:44;3.85;;;1.90;;
20340;SDS011;10328;50.042;8.238;2022-09-30T17:31:11;6.18;;;2.20;;
20340;SDS011;10328;50.042;8.238;2022-09-30T17:33:38;4.57;;;2.58;;
20340;SDS011;10328;50.042;8.238;2022-09-30T17:36:06;2.28;;;1.88;;
20340;SDS011;10328;50.042;8.238;2022-09-30T17:38:35;4.65;;;1.95;;
20340;SDS011;10328;50.042;8.238;2022-09-30T17:41:01;3.35;;;1.50;;
20340;SDS011;10328;50.042;8.238;2022-09-30T17:43:50;3.60;;;2.08;;
20340;SDS011;10328;50.042;8.238;2022-09-30T17:46:16;3.42;;;2.30;;
20340;SDS011;10328;50.042;8.238;2022-09-30T17:48:46;3.60;;;2.40;;
20340;SDS011;10328;50.042;8.238;2022-09-30T17:51:13;3.10;;;2.15;;
20340;SDS011;10328;50.042;8.238;2022-09-30T17:53:43;3.75;;;1.98;;
20340;SDS011;10328;50.042;8.238;2022-09-30T17:56:13;4.40;;;2.50;;
20340;SDS011;10328;50.042;8.238;2022-09-30T17:58:42;2.95;;;2.13;;
20340;SDS011;10328;50.042;8.238;2022-09-30T18:01:13;2.75;;;2.10;;
20340;SDS011;10328;50.042;8.238;2022-09-30T18:03:40;2.67;;;1.70;;
20340;SDS011;10328;50.042;8.238;2022-09-30T18:06:07;1.83;;;1.60;;
20340;SDS011;10328;50.042;8.238;2022-09-30T18:08:33;3.15;;;2.15;;
20340;SDS011;10328;50.042;8.238;2022-09-30T18:11:00;2.10;;;1.40;;
20340;SDS011;10328;50.042;8.238;2022-09-30T18:13:27;2.45;;;1.50;;
20340;SDS011;10328;50.042;8.238;2022-09-30T18:15:54;1.73;;;1.50;;
20340;SDS011;10328;50.042;8.238;2022-09-30T18:18:24;2.78;;;1.40;;
20340;SDS011;10328;50.042;8.238;2022-09-30T18:20:50;1.42;;;1.30;;
20340;SDS011;10328;50.042;8.238;2022-09-30T18:23:17;1.63;;;1.17;;